sensor_id;sensor_type;location;lat;lon;timestamp;pressure;altitude;pressure_sealevel;temperature;humidity
38227;BME280;24026;49.446;8.576;2024-03-02T00:00:05;99328.88;;;13.84;47.02
38227;BME280;24026;49.446;8.576;2024-03-02T00:02:31;99324.59;;;13.83;47.04
38227;BME280;24026;49.446;8.576;2024-03-02T00:04:52;99329.16;;;13.82;47.24
38227;BME280;24026;49.446;8.576;2024-03-02T00:07:14;99335.28;;;13.83;47.09
38227;BME280;24026;49.446;8.576;2024-03-02T00:09:34;99319.53;;;13.81;47.11
38227;BME280;24026;49.446;8.576;2024-03-02T00:11:55;99318.75;;;13.81;47.08
38227;BME280;24026;49.446;8.576;2024-03-02T00:14:15;99319.81;;;13.80;46.94
38227;BME280;24026;49.446;8.576;2024-03-02T00:16:36;99305.69;;;13.79;47.20
38227;BME280;24026;49.446;8.576;2024-03-02T00:19:01;99311.81;;;13.80;47.10
38227;BME280;24026;49.446;8.576;2024-03-02T00:21:26;99311.03;;;13.79;47.10
38227;BME280;24026;49.446;8.576;2024-03-02T00:23:48;99307.56;;;13.79;47.20
38227;BME280;24026;49.446;8.576;2024-03-02T00:26:11;99309.47;;;13.78;47.13
38227;BME280;24026;49.446;8.576;2024-03-02T00:28:34;99308.66;;;13.78;47.11
38227;BME280;24026;49.446;8.576;2024-03-02T00:31:02;99313.19;;;13.77;47.19
38227;BME280;24026;49.446;8.576;2024-03-02T00:33:26;99307.84;;;13.77;47.20
38227;BME280;24026;49.446;8.576;2024-03-02T00:35:49;99310.81;;;13.76;47.47
38227;BME280;24026;49.446;8.576;2024-03-02T00:38:10;99311.59;;;13.76;47.05
38227;BME280;24026;49.446;8.576;2024-03-02T00:40:31;99313.50;;;13.76;47.22
38227;BME280;24026;49.446;8.576;2024-03-02T00:42:51;99316.16;;;13.76;47.18
38227;BME280;24026;49.446;8.576;2024-03-02T00:45:12;99310.31;;;13.74;47.33
38227;BME280;24026;49.446;8.576;2024-03-02T00:47:38;99317.50;;;13.73;47.18
38227;BME280;24026;49.446;8.576;2024-03-02T00:49:58;99317.50;;;13.73;47.36
38227;BME280;24026;49.446;8.576;2024-03-02T00:52:19;99318.63;;;13.72;47.46
38227;BME280;24026;49.446;8.576;2024-03-02T00:54:39;99317.00;;;13.71;47.43
38227;BME280;24026;49.446;8.576;2024-03-02T00:57:00;99314.34;;;13.71;47.44
38227;BME280;24026;49.446;8.576;2024-03-02T00:59:21;99314.34;;;13.71;47.29
38227;BME280;24026;49.446;8.576;2024-03-02T01:01:41;99318.91;;;13.70;47.42
38227;BME280;24026;49.446;8.576;2024-03-02T01:04:03;99321.84;;;13.69;47.36
38227;BME280;24026;49.446;8.576;2024-03-02T01:06:23;99318.13;;;13.70;47.35
38227;BME280;24026;49.446;8.576;2024-03-02T01:08:44;99327.19;;;13.69;47.54
38227;BME280;24026;49.446;8.576;2024-03-02T01:11:05;99323.75;;;13.68;47.49
38227;BME280;24026;49.446;8.576;2024-03-02T01:13:25;99332.53;;;13.69;47.42
38227;BME280;24026;49.446;8.576;2024-03-02T01:15:46;99336.28;;;13.68;47.43
38227;BME280;24026;49.446;8.576;2024-03-02T01:18:06;99337.88;;;13.69;47.46
38227;BME280;24026;49.446;8.576;2024-03-02T01:20:28;99333.09;;;13.66;47.47
38227;BME280;24026;49.446;8.576;2024-03-02T01:22:48;99332.31;;;13.65;47.44
38227;BME280;24026;49.446;8.576;2024-03-02T01:25:09;99334.72;;;13.67;47.53
38227;BME280;24026;49.446;8.576;2024-03-02T01:27:29;99334.22;;;13.65;47.52
38227;BME280;24026;49.446;8.576;2024-03-02T01:29:50;99330.72;;;13.64;47.35
38227;BME280;24026;49.446;8.576;2024-03-02T01:32:10;99329.16;;;13.63;47.55
38227;BME280;24026;49.446;8.576;2024-03-02T01:34:30;99323.81;;;13.63;47.54
38227;BME280;24026;49.446;8.576;2024-03-02T01:36:51;99324.88;;;13.62;47.46
38227;BME280;24026;49.446;8.576;2024-03-02T01:39:11;99320.63;;;13.61;47.58
38227;BME280;24026;49.446;8.576;2024-03-02T01:41:31;99314.50;;;13.61;47.60
38227;BME280;24026;49.446;8.576;2024-03-02T01:43:52;99315.56;;;13.60;47.70
38227;BME280;24026;49.446;8.576;2024-03-02T01:46:12;99314.78;;;13.59;47.30
38227;BME280;24026;49.446;8.576;2024-03-02T01:48:33;99307.84;;;13.58;47.57
38227;BME280;24026;49.446;8.576;2024-03-02T01:50:54;99314.28;;;13.57;47.57
38227;BME280;24026;49.446;8.576;2024-03-02T01:53:15;99306.25;;;13.57;47.59
38227;BME280;24026;49.446;8.576;2024-03-02T01:55:36;99303.09;;;13.55;47.77
38227;BME280;24026;49.446;8.576;2024-03-02T01:57:57;99303.09;;;13.55;47.62
38227;BME280;24026;49.446;8.576;2024-03-02T02:00:19;99298.53;;;13.56;47.76
38227;BME280;24026;49.446;8.576;2024-03-02T02:02:40;99293.19;;;13.56;47.79
38227;BME280;24026;49.446;8.576;2024-03-02T02:05:00;99291.59;;;13.55;47.54
38227;BME280;24026;49.446;8.576;2024-03-02T02:07:21;99290.81;;;13.54;47.65
38227;BME280;24026;49.446;8.576;2024-03-02T02:09:42;99287.34;;;13.53;47.66
38227;BME280;24026;49.446;8.576;2024-03-02T02:12:02;99284.97;;;13.52;47.57
38227;BME280;24026;49.446;8.576;2024-03-02T02:14:26;99284.19;;;13.51;47.67
38227;BME280;24026;49.446;8.576;2024-03-02T02:16:46;99278.03;;;13.51;47.78
38227;BME280;24026;49.446;8.576;2024-03-02T02:19:07;99281.00;;;13.49;47.64
38227;BME280;24026;49.446;8.576;2024-03-02T02:21:28;99277.53;;;13.49;47.75
38227;BME280;24026;49.446;8.576;2024-03-02T02:23:48;99279.41;;;13.48;47.70
38227;BME280;24026;49.446;8.576;2024-03-02T02:26:08;99283.16;;;13.47;47.78
38227;BME280;24026;49.446;8.576;2024-03-02T02:28:29;99275.16;;;13.47;47.80
38227;BME280;24026;49.446;8.576;2024-03-02T02:30:49;99278.09;;;13.46;47.78
38227;BME280;24026;49.446;8.576;2024-03-02T02:33:10;99277.31;;;13.45;47.85
38227;BME280;24026;49.446;8.576;2024-03-02T02:35:30;99267.72;;;13.44;47.88
38227;BME280;24026;49.446;8.576;2024-03-02T02:37:52;99274.16;;;13.43;47.87
38227;BME280;24026;49.446;8.576;2024-03-02T02:40:13;99269.88;;;13.42;47.93
38227;BME280;24026;49.446;8.576;2024-03-02T02:42:34;99270.66;;;13.43;47.87
38227;BME280;24026;49.446;8.576;2024-03-02T02:44:54;99269.09;;;13.42;47.93
38227;BME280;24026;49.446;8.576;2024-03-02T02:47:15;99269.09;;;13.42;47.75
38227;BME280;24026;49.446;8.576;2024-03-02T02:49:35;99262.44;;;13.39;47.85
38227;BME280;24026;49.446;8.576;2024-03-02T02:51:56;99265.13;;;13.39;47.74
38227;BME280;24026;49.446;8.576;2024-03-02T02:54:16;99261.66;;;13.39;47.82
38227;BME280;24026;49.446;8.576;2024-03-02T02:56:37;99263.53;;;13.38;47.82
38227;BME280;24026;49.446;8.576;2024-03-02T02:58:57;99266.22;;;13.38;47.86
38227;BME280;24026;49.446;8.576;2024-03-02T03:01:18;99258.50;;;13.37;48.09
38227;BME280;24026;49.446;8.576;2024-03-02T03:03:38;99255.81;;;13.37;47.65
38227;BME280;24026;49.446;8.576;2024-03-02T03:05:58;99261.16;;;13.37;47.89
38227;BME280;24026;49.446;8.576;2024-03-02T03:08:19;99248.09;;;13.35;47.96
38227;BME280;24026;49.446;8.576;2024-03-02T03:10:39;99256.09;;;13.35;47.86
38227;BME280;24026;49.446;8.576;2024-03-02T03:13:00;99253.72;;;13.33;47.82
38227;BME280;24026;49.446;8.576;2024-03-02T03:15:20;99256.41;;;13.33;47.79
38227;BME280;24026;49.446;8.576;2024-03-02T03:17:40;99248.66;;;13.32;48.05
38227;BME280;24026;49.446;8.576;2024-03-02T03:20:01;99250.53;;;13.31;48.01
38227;BME280;24026;49.446;8.576;2024-03-02T03:22:24;99247.03;;;13.31;47.86
38227;BME280;24026;49.446;8.576;2024-03-02T03:24:44;99250.81;;;13.30;47.83
38227;BME280;24026;49.446;8.576;2024-03-02T03:27:05;99245.47;;;13.30;47.93
38227;BME280;24026;49.446;8.576;2024-03-02T03:29:25;99249.22;;;13.29;47.95
38227;BME280;24026;49.446;8.576;2024-03-02T03:31:45;99249.22;;;13.29;47.77
38227;BME280;24026;49.446;8.576;2024-03-02T03:34:06;99253.75;;;13.28;47.92
38227;BME280;24026;49.446;8.576;2024-03-02T03:36:26;99246.03;;;13.27;47.98
38227;BME280;24026;49.446;8.576;2024-03-02T03:38:47;99239.88;;;13.26;47.87
38227;BME280;24026;49.446;8.576;2024-03-02T03:41:08;99236.44;;;13.26;47.83
38227;BME280;24026;49.446;8.576;2024-03-02T03:43:28;99244.72;;;13.24;47.98
38227;BME280;24026;49.446;8.576;2024-03-02T03:45:49;99242.88;;;13.25;47.80
38227;BME280;24026;49.446;8.576;2024-03-02T03:48:09;99243.16;;;13.23;48.01
38227;BME280;24026;49.446;8.576;2024-03-02T03:50:30;99237.00;;;13.23;47.92
38227;BME280;24026;49.446;8.576;2024-03-02T03:52:50;99239.69;;;13.23;47.92
38227;BME280;24026;49.446;8.576;2024-03-02T03:55:11;99235.44;;;13.22;48.03
38227;BME280;24026;49.446;8.576;2024-03-02T03:57:31;99240.78;;;13.22;48.18
38227;BME280;24026;49.446;8.576;2024-03-02T03:59:52;99234.63;;;13.21;47.93
38227;BME280;24026;49.446;8.576;2024-03-02T04:02:12;99244.50;;;13.21;48.10
38227;BME280;24026;49.446;8.576;2024-03-02T04:04:33;99244.50;;;13.21;47.84
38227;BME280;24026;49.446;8.576;2024-03-02T04:06:53;99245.56;;;13.20;48.09
38227;BME280;24026;49.446;8.576;2024-03-02T04:09:14;99239.19;;;13.21;48.14
38227;BME280;24026;49.446;8.576;2024-03-02T04:11:34;99238.69;;;13.19;48.07
38227;BME280;24026;49.446;8.576;2024-03-02T04:13:55;99236.00;;;13.19;48.06
38227;BME280;24026;49.446;8.576;2024-03-02T04:16:15;99242.41;;;13.18;48.06
38227;BME280;24026;49.446;8.576;2024-03-02T04:18:36;99237.06;;;13.18;48.18
38227;BME280;24026;49.446;8.576;2024-03-02T04:20:56;99240.56;;;13.18;48.17
38227;BME280;24026;49.446;8.576;2024-03-02T04:23:18;99242.41;;;13.18;47.96
38227;BME280;24026;49.446;8.576;2024-03-02T04:25:38;99242.41;;;13.18;47.86
38227;BME280;24026;49.446;8.576;2024-03-02T04:27:59;99248.03;;;13.16;47.99
38227;BME280;24026;49.446;8.576;2024-03-02T04:30:20;99241.63;;;13.17;47.82
38227;BME280;24026;49.446;8.576;2024-03-02T04:32:40;99248.56;;;13.18;47.90
38227;BME280;24026;49.446;8.576;2024-03-02T04:35:01;99248.84;;;13.16;48.07
38227;BME280;24026;49.446;8.576;2024-03-02T04:37:21;99242.69;;;13.16;47.91
38227;BME280;24026;49.446;8.576;2024-03-02T04:39:42;99248.03;;;13.16;48.10
38227;BME280;24026;49.446;8.576;2024-03-02T04:42:02;99251.78;;;13.15;48.00
38227;BME280;24026;49.446;8.576;2024-03-02T04:44:23;99248.31;;;13.14;48.20
38227;BME280;24026;49.446;8.576;2024-03-02T04:46:43;99256.31;;;13.14;48.01
38227;BME280;24026;49.446;8.576;2024-03-02T04:49:04;99253.66;;;13.14;47.72
38227;BME280;24026;49.446;8.576;2024-03-02T04:51:24;99252.88;;;13.14;48.01
38227;BME280;24026;49.446;8.576;2024-03-02T04:53:45;99254.75;;;13.13;48.01
38227;BME280;24026;49.446;8.576;2024-03-02T04:56:06;99253.94;;;13.13;48.01
38227;BME280;24026;49.446;8.576;2024-03-02T04:58:44;99261.94;;;13.13;48.03
38227;BME280;24026;49.446;8.576;2024-03-02T05:01:05;99255.81;;;13.12;47.97
38227;BME280;24026;49.446;8.576;2024-03-02T05:03:25;99263.03;;;13.12;47.99
38227;BME280;24026;49.446;8.576;2024-03-02T05:05:46;99269.44;;;13.11;48.10
38227;BME280;24026;49.446;8.576;2024-03-02T05:08:06;99273.97;;;13.10;47.78
38227;BME280;24026;49.446;8.576;2024-03-02T05:10:27;99281.47;;;13.08;48.00
38227;BME280;24026;49.446;8.576;2024-03-02T05:12:47;99283.34;;;13.08;48.08
38227;BME280;24026;49.446;8.576;2024-03-02T05:15:19;99284.44;;;13.07;48.10
38227;BME280;24026;49.446;8.576;2024-03-02T05:17:40;99292.44;;;13.07;48.04
38227;BME280;24026;49.446;8.576;2024-03-02T05:20:04;99288.94;;;13.06;48.11
38227;BME280;24026;49.446;8.576;2024-03-02T05:22:24;99288.94;;;13.06;47.97
38227;BME280;24026;49.446;8.576;2024-03-02T05:24:45;99284.72;;;13.05;48.04
38227;BME280;24026;49.446;8.576;2024-03-02T05:27:05;99286.59;;;13.05;48.00
38227;BME280;24026;49.446;8.576;2024-03-02T05:29:27;99286.59;;;13.05;48.08
38227;BME280;24026;49.446;8.576;2024-03-02T05:31:48;99285.00;;;13.04;48.00
38227;BME280;24026;49.446;8.576;2024-03-02T05:34:08;99278.88;;;13.03;47.99
38227;BME280;24026;49.446;8.576;2024-03-02T05:36:29;99290.63;;;13.02;48.17
38227;BME280;24026;49.446;8.576;2024-03-02T05:38:49;99291.69;;;13.01;48.10
38227;BME280;24026;49.446;8.576;2024-03-02T05:41:10;99291.69;;;13.01;48.11
38227;BME280;24026;49.446;8.576;2024-03-02T05:43:31;99290.91;;;13.01;48.19
38227;BME280;24026;49.446;8.576;2024-03-02T05:45:52;99292.78;;;13.00;48.07
38227;BME280;24026;49.446;8.576;2024-03-02T05:48:12;99290.09;;;13.00;48.16
38227;BME280;24026;49.446;8.576;2024-03-02T05:50:33;99293.84;;;12.99;48.16
38227;BME280;24026;49.446;8.576;2024-03-02T05:52:53;99285.84;;;12.99;48.03
38227;BME280;24026;49.446;8.576;2024-03-02T05:55:16;99285.06;;;12.98;47.99
38227;BME280;24026;49.446;8.576;2024-03-02T05:57:36;99286.13;;;12.97;48.05
38227;BME280;24026;49.446;8.576;2024-03-02T06:00:06;99274.94;;;12.95;48.05
38227;BME280;24026;49.446;8.576;2024-03-02T06:02:28;99281.06;;;12.96;47.99
38227;BME280;24026;49.446;8.576;2024-03-02T06:04:48;99273.34;;;12.94;48.20
38227;BME280;24026;49.446;8.576;2024-03-02T06:07:09;99289.34;;;12.94;48.18
38227;BME280;24026;49.446;8.576;2024-03-02T06:09:29;99290.44;;;12.93;48.25
38227;BME280;24026;49.446;8.576;2024-03-02T06:11:49;99295.78;;;12.93;48.11
38227;BME280;24026;49.446;8.576;2024-03-02T06:14:10;99311.78;;;12.93;48.27
38227;BME280;24026;49.446;8.576;2024-03-02T06:16:31;99305.94;;;12.91;48.19
38227;BME280;24026;49.446;8.576;2024-03-02T06:18:52;99310.47;;;12.91;48.18
38227;BME280;24026;49.446;8.576;2024-03-02T06:21:14;99302.47;;;12.91;47.97
38227;BME280;24026;49.446;8.576;2024-03-02T06:23:34;99300.91;;;12.90;48.02
38227;BME280;24026;49.446;8.576;2024-03-02T06:25:55;99297.94;;;12.91;47.89
38227;BME280;24026;49.446;8.576;2024-03-02T06:28:16;99308.91;;;12.90;48.14
38227;BME280;24026;49.446;8.576;2024-03-02T06:30:36;99305.41;;;12.89;47.97
38227;BME280;24026;49.446;8.576;2024-03-02T06:32:57;99306.22;;;12.90;48.22
38227;BME280;24026;49.446;8.576;2024-03-02T06:35:17;99309.97;;;12.89;47.97
38227;BME280;24026;49.446;8.576;2024-03-02T06:37:38;99317.16;;;12.88;47.80
38227;BME280;24026;49.446;8.576;2024-03-02T06:40:00;99313.69;;;12.88;48.06
38227;BME280;24026;49.446;8.576;2024-03-02T06:42:20;99320.91;;;12.87;47.96
38227;BME280;24026;49.446;8.576;2024-03-02T06:44:41;99320.13;;;12.87;48.09
38227;BME280;24026;49.446;8.576;2024-03-02T06:47:01;99319.31;;;12.86;48.01
38227;BME280;24026;49.446;8.576;2024-03-02T06:49:21;99324.63;;;12.86;48.19
38227;BME280;24026;49.446;8.576;2024-03-02T06:51:42;99325.72;;;12.85;48.08
38227;BME280;24026;49.446;8.576;2024-03-02T06:54:02;99324.94;;;12.85;48.07
38227;BME280;24026;49.446;8.576;2024-03-02T06:56:23;99324.63;;;12.86;48.12
38227;BME280;24026;49.446;8.576;2024-03-02T06:58:43;99315.06;;;12.85;48.08
38227;BME280;24026;49.446;8.576;2024-03-02T07:01:04;99316.94;;;12.85;48.07
38227;BME280;24026;49.446;8.576;2024-03-02T07:03:25;99318.78;;;12.84;48.10
38227;BME280;24026;49.446;8.576;2024-03-02T07:05:45;99324.13;;;12.84;47.99
38227;BME280;24026;49.446;8.576;2024-03-02T07:08:06;99322.28;;;12.85;47.85
38227;BME280;24026;49.446;8.576;2024-03-02T07:10:26;99322.56;;;12.83;47.73
38227;BME280;24026;49.446;8.576;2024-03-02T07:12:47;99319.91;;;12.83;47.84
38227;BME280;24026;49.446;8.576;2024-03-02T07:15:08;99327.91;;;12.83;48.10
38227;BME280;24026;49.446;8.576;2024-03-02T07:17:38;99325.22;;;12.83;47.82
38227;BME280;24026;49.446;8.576;2024-03-02T07:19:59;99323.34;;;12.84;47.91
38227;BME280;24026;49.446;8.576;2024-03-02T07:22:20;99326.00;;;12.84;47.94
38227;BME280;24026;49.446;8.576;2024-03-02T07:24:41;99327.91;;;12.83;47.82
38227;BME280;24026;49.446;8.576;2024-03-02T07:27:02;99326.28;;;12.82;48.02
38227;BME280;24026;49.446;8.576;2024-03-02T07:29:24;99320.97;;;12.82;47.88
38227;BME280;24026;49.446;8.576;2024-03-02T07:31:44;99320.97;;;12.82;47.83
38227;BME280;24026;49.446;8.576;2024-03-02T07:34:04;99326.28;;;12.82;47.82
38227;BME280;24026;49.446;8.576;2024-03-02T07:36:25;99330.56;;;12.83;47.96
38227;BME280;24026;49.446;8.576;2024-03-02T07:38:45;99339.34;;;12.84;47.76
38227;BME280;24026;49.446;8.576;2024-03-02T07:41:07;99347.06;;;12.85;47.94
38227;BME280;24026;49.446;8.576;2024-03-02T07:43:28;99347.84;;;12.86;47.74
38227;BME280;24026;49.446;8.576;2024-03-02T07:45:48;99353.19;;;12.86;47.80
38227;BME280;24026;49.446;8.576;2024-03-02T07:48:09;99349.44;;;12.87;47.83
38227;BME280;24026;49.446;8.576;2024-03-02T07:50:29;99358.25;;;12.87;47.71
38227;BME280;24026;49.446;8.576;2024-03-02T07:52:55;99354.50;;;12.88;47.67
38227;BME280;24026;49.446;8.576;2024-03-02T07:55:15;99356.91;;;12.90;47.54
38227;BME280;24026;49.446;8.576;2024-03-02T07:57:36;99359.28;;;12.91;47.66
38227;BME280;24026;49.446;8.576;2024-03-02T07:59:57;99360.06;;;12.92;47.67
38227;BME280;24026;49.446;8.576;2024-03-02T08:02:19;99358.97;;;12.93;47.73
38227;BME280;24026;49.446;8.576;2024-03-02T08:04:40;99356.03;;;12.94;47.49
38227;BME280;24026;49.446;8.576;2024-03-02T08:07:01;99359.22;;;12.96;47.37
38227;BME280;24026;49.446;8.576;2024-03-02T08:09:22;99352.81;;;12.97;47.69
38227;BME280;24026;49.446;8.576;2024-03-02T08:11:42;99365.56;;;13.01;47.19
38227;BME280;24026;49.446;8.576;2024-03-02T08:14:03;99362.63;;;13.02;47.40
38227;BME280;24026;49.446;8.576;2024-03-02T08:16:23;99354.34;;;13.04;47.40
38227;BME280;24026;49.446;8.576;2024-03-02T08:18:46;99359.91;;;13.07;47.41
38227;BME280;24026;49.446;8.576;2024-03-02T08:21:07;99359.34;;;13.10;47.49
38227;BME280;24026;49.446;8.576;2024-03-02T08:23:28;99359.84;;;13.12;47.45
38227;BME280;24026;49.446;8.576;2024-03-02T08:25:49;99353.16;;;13.15;47.12
38227;BME280;24026;49.446;8.576;2024-03-02T08:28:09;99357.13;;;13.18;47.03
38227;BME280;24026;49.446;8.576;2024-03-02T08:30:30;99361.13;;;13.20;47.42
38227;BME280;24026;49.446;8.576;2024-03-02T08:32:50;99361.34;;;13.24;47.00
38227;BME280;24026;49.446;8.576;2024-03-02T08:35:10;99359.19;;;13.26;47.27
38227;BME280;24026;49.446;8.576;2024-03-02T08:37:31;99357.84;;;13.28;46.87
38227;BME280;24026;49.446;8.576;2024-03-02T08:39:51;99359.94;;;13.31;46.90
38227;BME280;24026;49.446;8.576;2024-03-02T08:42:12;99359.38;;;13.34;47.06
38227;BME280;24026;49.446;8.576;2024-03-02T08:44:32;99351.91;;;13.37;46.88
38227;BME280;24026;49.446;8.576;2024-03-02T08:46:53;99358.25;;;13.41;47.00
38227;BME280;24026;49.446;8.576;2024-03-02T08:49:14;99358.47;;;13.44;47.08
38227;BME280;24026;49.446;8.576;2024-03-02T08:51:34;99359.78;;;13.47;46.84
38227;BME280;24026;49.446;8.576;2024-03-02T08:53:55;99358.41;;;13.49;46.81
38227;BME280;24026;49.446;8.576;2024-03-02T08:56:16;99360.50;;;13.52;46.70
38227;BME280;24026;49.446;8.576;2024-03-02T08:58:37;99355.38;;;13.56;46.67
38227;BME280;24026;49.446;8.576;2024-03-02T09:01:01;99352.16;;;13.59;46.33
38227;BME280;24026;49.446;8.576;2024-03-02T09:03:23;99353.47;;;13.62;46.56
38227;BME280;24026;49.446;8.576;2024-03-02T09:05:44;99340.63;;;13.64;46.59
38227;BME280;24026;49.446;8.576;2024-03-02T09:08:06;99338.44;;;13.66;46.46
38227;BME280;24026;49.446;8.576;2024-03-02T09:10:27;99340.53;;;13.69;46.45
38227;BME280;24026;49.446;8.576;2024-03-02T09:12:47;99335.72;;;13.71;46.40
38227;BME280;24026;49.446;8.576;2024-03-02T09:15:08;99341.53;;;13.73;46.16
38227;BME280;24026;49.446;8.576;2024-03-02T09:17:29;99342.88;;;13.76;46.35
38227;BME280;24026;49.446;8.576;2024-03-02T09:19:50;99343.38;;;13.78;46.33
38227;BME280;24026;49.446;8.576;2024-03-02T09:22:12;99345.47;;;13.81;46.32
38227;BME280;24026;49.446;8.576;2024-03-02T09:24:33;99347.56;;;13.84;46.09
38227;BME280;24026;49.446;8.576;2024-03-02T09:26:53;99344.59;;;13.85;46.10
38227;BME280;24026;49.446;8.576;2024-03-02T09:29:14;99337.88;;;13.88;46.39
38227;BME280;24026;49.446;8.576;2024-03-02T09:31:42;99333.84;;;13.90;45.98
38227;BME280;24026;49.446;8.576;2024-03-02T09:34:02;99337.03;;;13.93;46.02
38227;BME280;24026;49.446;8.576;2024-03-02T09:36:23;99342.06;;;13.94;45.92
38227;BME280;24026;49.446;8.576;2024-03-02T09:38:43;99343.38;;;13.97;46.04
38227;BME280;24026;49.446;8.576;2024-03-02T09:41:04;99342.78;;;14.00;45.94
38227;BME280;24026;49.446;8.576;2024-03-02T09:43:24;99339.53;;;14.03;45.86
38227;BME280;24026;49.446;8.576;2024-03-02T09:45:45;99336.59;;;14.04;45.92
38227;BME280;24026;49.446;8.576;2024-03-02T09:48:07;99339.47;;;14.08;45.77
38227;BME280;24026;49.446;8.576;2024-03-02T09:50:27;99334.66;;;14.10;45.74
38227;BME280;24026;49.446;8.576;2024-03-02T09:52:48;99331.38;;;14.13;45.76
38227;BME280;24026;49.446;8.576;2024-03-02T09:55:11;99328.13;;;14.16;45.78
38227;BME280;24026;49.446;8.576;2024-03-02T09:57:32;99331.31;;;14.18;45.45
38227;BME280;24026;49.446;8.576;2024-03-02T09:59:52;99327.25;;;14.21;45.50
38227;BME280;24026;49.446;8.576;2024-03-02T10:02:12;99326.69;;;14.24;45.49
38227;BME280;24026;49.446;8.576;2024-03-02T10:04:33;99326.09;;;14.27;45.40
38227;BME280;24026;49.446;8.576;2024-03-02T10:07:16;99323.13;;;14.29;45.38
38227;BME280;24026;49.446;8.576;2024-03-02T10:09:36;99318.00;;;14.32;45.45
38227;BME280;24026;49.446;8.576;2024-03-02T10:12:04;99319.28;;;14.35;45.46
38227;BME280;24026;49.446;8.576;2024-03-02T10:14:25;99313.66;;;14.36;45.28
38227;BME280;24026;49.446;8.576;2024-03-02T10:16:45;99319.19;;;14.40;45.31
38227;BME280;24026;49.446;8.576;2024-03-02T10:19:23;99312.47;;;14.42;45.26
38227;BME280;24026;49.446;8.576;2024-03-02T10:21:54;99314.88;;;14.44;45.07
38227;BME280;24026;49.446;8.576;2024-03-02T10:24:15;99309.72;;;14.48;45.12
38227;BME280;24026;49.446;8.576;2024-03-02T10:26:35;99309.16;;;14.51;45.08
38227;BME280;24026;49.446;8.576;2024-03-02T10:28:56;99308.84;;;14.52;45.05
38227;BME280;24026;49.446;8.576;2024-03-02T10:31:19;99313.63;;;14.55;44.72
38227;BME280;24026;49.446;8.576;2024-03-02T10:33:40;99310.66;;;14.57;45.12
38227;BME280;24026;49.446;8.576;2024-03-02T10:36:00;99310.06;;;14.60;44.90
38227;BME280;24026;49.446;8.576;2024-03-02T10:38:22;99309.47;;;14.63;44.83
38227;BME280;24026;49.446;8.576;2024-03-02T10:40:46;99306.22;;;14.66;44.72
38227;BME280;24026;49.446;8.576;2024-03-02T10:43:07;99305.16;;;14.67;44.71
38227;BME280;24026;49.446;8.576;2024-03-02T10:45:29;99311.78;;;14.70;44.91
38227;BME280;24026;49.446;8.576;2024-03-02T10:47:50;99312.31;;;14.72;44.87
38227;BME280;24026;49.446;8.576;2024-03-02T10:50:11;99303.66;;;14.75;44.86
38227;BME280;24026;49.446;8.576;2024-03-02T10:52:31;99302.28;;;14.77;44.51
38227;BME280;24026;49.446;8.576;2024-03-02T10:54:52;99301.69;;;14.80;44.61
38227;BME280;24026;49.446;8.576;2024-03-02T10:57:13;99299.22;;;14.84;44.51
38227;BME280;24026;49.446;8.576;2024-03-02T10:59:35;99297.81;;;14.87;44.29
38227;BME280;24026;49.446;8.576;2024-03-02T11:01:58;99296.47;;;14.89;44.38
38227;BME280;24026;49.446;8.576;2024-03-02T11:04:20;99286.25;;;14.91;44.33
38227;BME280;24026;49.446;8.576;2024-03-02T11:06:50;99287.25;;;14.95;44.24
38227;BME280;24026;49.446;8.576;2024-03-02T11:09:11;99285.84;;;14.98;44.17
38227;BME280;24026;49.446;8.576;2024-03-02T11:11:36;99285.25;;;15.01;44.16
38227;BME280;24026;49.446;8.576;2024-03-02T11:14:01;99292.69;;;15.04;44.04
38227;BME280;24026;49.446;8.576;2024-03-02T11:16:36;99281.41;;;15.07;44.16
38227;BME280;24026;49.446;8.576;2024-03-02T11:18:56;99287.25;;;15.09;44.01
38227;BME280;24026;49.446;8.576;2024-03-02T11:21:19;99281.31;;;15.12;44.04
38227;BME280;24026;49.446;8.576;2024-03-02T11:23:40;99276.44;;;15.14;43.95
38227;BME280;24026;49.446;8.576;2024-03-02T11:26:19;99266.22;;;15.16;43.77
38227;BME280;24026;49.446;8.576;2024-03-02T11:28:41;99261.06;;;15.20;43.81
38227;BME280;24026;49.446;8.576;2024-03-02T11:31:03;99261.28;;;15.24;43.66
38227;BME280;24026;49.446;8.576;2024-03-02T11:33:24;99259.88;;;15.26;43.61
38227;BME280;24026;49.446;8.576;2024-03-02T11:35:47;99252.84;;;15.30;43.69
38227;BME280;24026;49.446;8.576;2024-03-02T11:38:09;99248.47;;;15.34;43.59
38227;BME280;24026;49.446;8.576;2024-03-02T11:40:30;99246.25;;;15.36;43.63
38227;BME280;24026;49.446;8.576;2024-03-02T11:42:51;99242.22;;;15.39;43.30
38227;BME280;24026;49.446;8.576;2024-03-02T11:45:16;99243.19;;;15.43;43.62
38227;BME280;24026;49.446;8.576;2024-03-02T11:47:37;99241.00;;;15.45;43.17
38227;BME280;24026;49.446;8.576;2024-03-02T11:49:58;99241.19;;;15.49;43.38
38227;BME280;24026;49.446;8.576;2024-03-02T11:52:19;99242.16;;;15.53;43.10
38227;BME280;24026;49.446;8.576;2024-03-02T11:54:41;99237.28;;;15.55;42.95
38227;BME280;24026;49.446;8.576;2024-03-02T11:57:07;99227.09;;;15.57;43.04
38227;BME280;24026;49.446;8.576;2024-03-02T11:59:29;99227.28;;;15.61;42.84
38227;BME280;24026;49.446;8.576;2024-03-02T12:01:50;99218.94;;;15.62;42.99
38227;BME280;24026;49.446;8.576;2024-03-02T12:04:10;99212.16;;;15.65;42.83
38227;BME280;24026;49.446;8.576;2024-03-02T12:06:31;99208.91;;;15.68;42.79
38227;BME280;24026;49.446;8.576;2024-03-02T12:08:53;99200.25;;;15.71;42.43
38227;BME280;24026;49.446;8.576;2024-03-02T12:11:14;99198.84;;;15.73;42.39
38227;BME280;24026;49.446;8.576;2024-03-02T12:13:35;99200.16;;;15.76;42.42
38227;BME280;24026;49.446;8.576;2024-03-02T12:15:57;99200.63;;;15.78;42.29
38227;BME280;24026;49.446;8.576;2024-03-02T12:18:17;99197.66;;;15.80;42.33
38227;BME280;24026;49.446;8.576;2024-03-02T12:20:38;99197.06;;;15.83;42.18
38227;BME280;24026;49.446;8.576;2024-03-02T12:23:01;99192.19;;;15.85;42.21
38227;BME280;24026;49.446;8.576;2024-03-02T12:25:23;99193.47;;;15.87;41.89
38227;BME280;24026;49.446;8.576;2024-03-02T12:27:44;99197.41;;;15.90;41.86